sensor_id;sensor_type;location;lat;lon;timestamp;P1;durP1;ratioP1;P2;durP2;ratioP2
46036;SDS011;31769;49.304;8.428;2024-01-15T00:02:56;46.42;;;16.23;;
46036;SDS011;31769;49.304;8.428;2024-01-15T00:05:57;36.83;;;13.25;;
46036;SDS011;31769;49.304;8.428;2024-01-15T00:08:57;49.90;;;17.27;;
46036;SDS011;31769;49.304;8.428;2024-01-15T00:11:59;41.03;;;14.68;;
46036;SDS011;31769;49.304;8.428;2024-01-15T00:15:00;49.97;;;19.42;;
46036;SDS011;31769;49.304;8.428;2024-01-15T00:18:00;50.15;;;17.77;;
46036;SDS011;31769;49.304;8.428;2024-01-15T00:21:01;37.60;;;14.13;;
46036;SDS011;31769;49.304;8.428;2024-01-15T00:24:02;44.47;;;16.58;;
46036;SDS011;31769;49.304;8.428;2024-01-15T00:27:03;43.90;;;15.68;;
46036;SDS011;31769;49.304;8.428;2024-01-15T00:30:04;44.85;;;16.95;;
46036;SDS011;31769;49.304;8.428;2024-01-15T00:33:05;49.95;;;17.60;;
46036;SDS011;31769;49.304;8.428;2024-01-15T00:36:06;44.83;;;15.82;;
46036;SDS011;31769;49.304;8.428;2024-01-15T00:39:07;44.33;;;16.48;;
46036;SDS011;31769;49.304;8.428;2024-01-15T00:42:07;46.72;;;17.52;;
46036;SDS011;31769;49.304;8.428;2024-01-15T00:45:08;42.97;;;16.15;;
46036;SDS011;31769;49.304;8.428;2024-01-15T00:48:09;55.65;;;19.58;;
46036;SDS011;31769;49.304;8.428;2024-01-15T00:51:10;48.47;;;18.10;;
46036;SDS011;31769;49.304;8.428;2024-01-15T00:54:10;50.97;;;18.95;;
46036;SDS011;31769;49.304;8.428;2024-01-15T00:57:11;54.88;;;20.20;;
46036;SDS011;31769;49.304;8.428;2024-01-15T01:00:12;53.60;;;18.02;;
46036;SDS011;31769;49.304;8.428;2024-01-15T01:03:13;44.13;;;16.60;;
46036;SDS011;31769;49.304;8.428;2024-01-15T01:06:13;43.90;;;16.02;;
46036;SDS011;31769;49.304;8.428;2024-01-15T01:09:14;40.42;;;14.55;;
46036;SDS011;31769;49.304;8.428;2024-01-15T01:12:15;49.20;;;18.13;;
46036;SDS011;31769;49.304;8.428;2024-01-15T01:15:15;49.00;;;15.48;;
46036;SDS011;31769;49.304;8.428;2024-01-15T01:18:16;47.50;;;16.85;;
46036;SDS011;31769;49.304;8.428;2024-01-15T01:21:17;48.45;;;16.00;;
46036;SDS011;31769;49.304;8.428;2024-01-15T01:24:17;46.50;;;17.38;;
46036;SDS011;31769;49.304;8.428;2024-01-15T01:27:18;52.05;;;18.30;;
46036;SDS011;31769;49.304;8.428;2024-01-15T01:30:19;39.45;;;14.90;;
46036;SDS011;31769;49.304;8.428;2024-01-15T01:33:19;32.58;;;10.90;;
46036;SDS011;31769;49.304;8.428;2024-01-15T01:36:20;44.08;;;15.00;;
46036;SDS011;31769;49.304;8.428;2024-01-15T01:39:21;38.65;;;13.25;;
46036;SDS011;31769;49.304;8.428;2024-01-15T01:42:21;47.30;;;17.27;;
46036;SDS011;31769;49.304;8.428;2024-01-15T01:45:22;37.67;;;13.00;;
46036;SDS011;31769;49.304;8.428;2024-01-15T01:48:23;39.55;;;15.00;;
46036;SDS011;31769;49.304;8.428;2024-01-15T01:51:25;42.42;;;15.18;;
46036;SDS011;31769;49.304;8.428;2024-01-15T01:54:27;38.67;;;14.85;;
46036;SDS011;31769;49.304;8.428;2024-01-15T01:57:29;41.80;;;16.45;;
46036;SDS011;31769;49.304;8.428;2024-01-15T02:00:31;35.70;;;13.75;;
46036;SDS011;31769;49.304;8.428;2024-01-15T02:03:33;41.78;;;15.35;;
46036;SDS011;31769;49.304;8.428;2024-01-15T02:06:35;39.20;;;14.63;;
46036;SDS011;31769;49.304;8.428;2024-01-15T02:09:36;40.50;;;14.40;;
46036;SDS011;31769;49.304;8.428;2024-01-15T02:12:37;38.20;;;14.23;;
46036;SDS011;31769;49.304;8.428;2024-01-15T02:15:37;37.35;;;15.55;;
46036;SDS011;31769;49.304;8.428;2024-01-15T02:18:42;37.40;;;13.70;;
46036;SDS011;31769;49.304;8.428;2024-01-15T02:21:43;38.03;;;14.07;;
46036;SDS011;31769;49.304;8.428;2024-01-15T02:24:44;41.53;;;16.60;;
46036;SDS011;31769;49.304;8.428;2024-01-15T02:27:45;33.30;;;11.60;;
46036;SDS011;31769;49.304;8.428;2024-01-15T02:30:46;39.58;;;14.32;;
46036;SDS011;31769;49.304;8.428;2024-01-15T02:33:47;37.28;;;14.02;;
46036;SDS011;31769;49.304;8.428;2024-01-15T02:36:47;36.22;;;13.73;;
46036;SDS011;31769;49.304;8.428;2024-01-15T02:39:48;38.63;;;14.98;;
46036;SDS011;31769;49.304;8.428;2024-01-15T02:42:49;35.97;;;13.85;;
46036;SDS011;31769;49.304;8.428;2024-01-15T02:45:49;33.33;;;13.75;;
46036;SDS011;31769;49.304;8.428;2024-01-15T02:48:50;30.75;;;12.20;;
46036;SDS011;31769;49.304;8.428;2024-01-15T02:51:51;38.08;;;14.63;;
46036;SDS011;31769;49.304;8.428;2024-01-15T02:54:51;38.40;;;15.50;;
46036;SDS011;31769;49.304;8.428;2024-01-15T02:57:52;40.25;;;15.38;;
46036;SDS011;31769;49.304;8.428;2024-01-15T03:00:52;35.13;;;13.20;;
46036;SDS011;31769;49.304;8.428;2024-01-15T03:03:53;29.60;;;10.82;;
46036;SDS011;31769;49.304;8.428;2024-01-15T03:06:55;37.20;;;14.30;;
46036;SDS011;31769;49.304;8.428;2024-01-15T03:09:55;37.88;;;13.68;;
46036;SDS011;31769;49.304;8.428;2024-01-15T03:12:57;31.10;;;12.50;;
46036;SDS011;31769;49.304;8.428;2024-01-15T03:15:57;35.85;;;13.52;;
46036;SDS011;31769;49.304;8.428;2024-01-15T03:18:58;27.60;;;10.82;;
46036;SDS011;31769;49.304;8.428;2024-01-15T03:21:59;28.77;;;10.90;;
46036;SDS011;31769;49.304;8.428;2024-01-15T03:25:00;32.63;;;12.15;;
46036;SDS011;31769;49.304;8.428;2024-01-15T03:28:01;34.03;;;13.05;;
46036;SDS011;31769;49.304;8.428;2024-01-15T03:31:02;35.63;;;13.15;;
46036;SDS011;31769;49.304;8.428;2024-01-15T03:34:02;40.20;;;15.35;;
46036;SDS011;31769;49.304;8.428;2024-01-15T03:37:03;42.72;;;15.13;;
46036;SDS011;31769;49.304;8.428;2024-01-15T03:40:04;32.55;;;11.35;;
46036;SDS011;31769;49.304;8.428;2024-01-15T03:43:05;38.63;;;13.02;;
46036;SDS011;31769;49.304;8.428;2024-01-15T03:46:06;44.33;;;14.88;;
46036;SDS011;31769;49.304;8.428;2024-01-15T03:49:07;36.42;;;13.90;;
46036;SDS011;31769;49.304;8.428;2024-01-15T03:52:08;37.53;;;13.80;;
46036;SDS011;31769;49.304;8.428;2024-01-15T03:55:08;30.00;;;12.68;;
46036;SDS011;31769;49.304;8.428;2024-01-15T03:58:09;40.83;;;16.15;;
46036;SDS011;31769;49.304;8.428;2024-01-15T04:01:10;38.90;;;14.68;;
46036;SDS011;31769;49.304;8.428;2024-01-15T04:04:10;33.83;;;13.68;;
46036;SDS011;31769;49.304;8.428;2024-01-15T04:07:11;40.35;;;14.73;;
46036;SDS011;31769;49.304;8.428;2024-01-15T04:10:12;28.35;;;10.48;;
46036;SDS011;31769;49.304;8.428;2024-01-15T04:13:12;29.08;;;11.40;;
46036;SDS011;31769;49.304;8.428;2024-01-15T04:16:13;32.70;;;12.13;;
46036;SDS011;31769;49.304;8.428;2024-01-15T04:19:14;38.83;;;14.13;;
46036;SDS011;31769;49.304;8.428;2024-01-15T04:22:14;32.85;;;12.50;;
46036;SDS011;31769;49.304;8.428;2024-01-15T04:25:15;38.47;;;15.63;;
46036;SDS011;31769;49.304;8.428;2024-01-15T04:28:16;38.63;;;14.27;;
46036;SDS011;31769;49.304;8.428;2024-01-15T04:31:22;45.15;;;16.55;;
46036;SDS011;31769;49.304;8.428;2024-01-15T04:34:24;40.72;;;15.77;;
46036;SDS011;31769;49.304;8.428;2024-01-15T04:37:25;38.00;;;14.25;;
46036;SDS011;31769;49.304;8.428;2024-01-15T04:40:25;31.15;;;11.57;;
46036;SDS011;31769;49.304;8.428;2024-01-15T04:43:27;36.50;;;13.15;;
46036;SDS011;31769;49.304;8.428;2024-01-15T04:46:28;39.25;;;15.95;;
46036;SDS011;31769;49.304;8.428;2024-01-15T04:49:28;37.95;;;15.35;;
46036;SDS011;31769;49.304;8.428;2024-01-15T04:52:30;38.97;;;16.35;;
46036;SDS011;31769;49.304;8.428;2024-01-15T04:55:30;37.33;;;16.80;;
46036;SDS011;31769;49.304;8.428;2024-01-15T04:58:31;41.30;;;15.82;;
46036;SDS011;31769;49.304;8.428;2024-01-15T05:01:32;40.00;;;16.67;;
46036;SDS011;31769;49.304;8.428;2024-01-15T05:04:33;40.00;;;16.23;;
46036;SDS011;31769;49.304;8.428;2024-01-15T05:07:34;43.03;;;15.88;;
46036;SDS011;31769;49.304;8.428;2024-01-15T05:10:34;42.05;;;15.63;;
46036;SDS011;31769;49.304;8.428;2024-01-15T05:13:35;42.03;;;16.90;;
46036;SDS011;31769;49.304;8.428;2024-01-15T05:16:38;41.25;;;15.82;;
46036;SDS011;31769;49.304;8.428;2024-01-15T05:19:39;42.00;;;15.73;;
46036;SDS011;31769;49.304;8.428;2024-01-15T05:22:39;42.05;;;17.10;;
46036;SDS011;31769;49.304;8.428;2024-01-15T05:25:40;34.55;;;15.88;;
46036;SDS011;31769;49.304;8.428;2024-01-15T05:28:41;38.10;;;15.73;;
46036;SDS011;31769;49.304;8.428;2024-01-15T05:31:42;38.50;;;16.92;;
46036;SDS011;31769;49.304;8.428;2024-01-15T05:34:43;39.05;;;15.07;;
46036;SDS011;31769;49.304;8.428;2024-01-15T05:37:44;39.85;;;16.20;;
46036;SDS011;31769;49.304;8.428;2024-01-15T05:40:45;37.65;;;15.75;;
46036;SDS011;31769;49.304;8.428;2024-01-15T05:43:46;40.13;;;16.02;;
46036;SDS011;31769;49.304;8.428;2024-01-15T05:46:47;43.70;;;18.08;;
46036;SDS011;31769;49.304;8.428;2024-01-15T05:49:47;37.20;;;14.95;;
46036;SDS011;31769;49.304;8.428;2024-01-15T05:52:48;41.65;;;15.90;;
46036;SDS011;31769;49.304;8.428;2024-01-15T05:55:48;32.75;;;13.52;;
46036;SDS011;31769;49.304;8.428;2024-01-15T05:58:49;38.90;;;15.95;;
46036;SDS011;31769;49.304;8.428;2024-01-15T06:01:50;37.33;;;15.40;;
46036;SDS011;31769;49.304;8.428;2024-01-15T06:04:50;48.70;;;16.17;;
46036;SDS011;31769;49.304;8.428;2024-01-15T06:07:51;37.42;;;16.38;;
46036;SDS011;31769;49.304;8.428;2024-01-15T06:10:52;31.20;;;13.88;;
46036;SDS011;31769;49.304;8.428;2024-01-15T06:13:52;35.42;;;14.40;;
46036;SDS011;31769;49.304;8.428;2024-01-15T06:16:53;28.48;;;12.35;;
46036;SDS011;31769;49.304;8.428;2024-01-15T06:19:53;41.70;;;15.80;;
46036;SDS011;31769;49.304;8.428;2024-01-15T06:22:54;31.25;;;13.13;;
46036;SDS011;31769;49.304;8.428;2024-01-15T06:25:55;41.65;;;16.23;;
46036;SDS011;31769;49.304;8.428;2024-01-15T06:28:55;37.05;;;15.13;;
46036;SDS011;31769;49.304;8.428;2024-01-15T06:31:56;41.67;;;19.52;;
46036;SDS011;31769;49.304;8.428;2024-01-15T06:34:56;41.72;;;20.35;;
46036;SDS011;31769;49.304;8.428;2024-01-15T06:37:57;38.00;;;17.60;;
46036;SDS011;31769;49.304;8.428;2024-01-15T06:40:58;41.50;;;17.40;;
46036;SDS011;31769;49.304;8.428;2024-01-15T06:43:58;40.33;;;15.98;;
46036;SDS011;31769;49.304;8.428;2024-01-15T06:46:59;39.17;;;17.63;;
46036;SDS011;31769;49.304;8.428;2024-01-15T06:50:02;38.47;;;16.00;;
46036;SDS011;31769;49.304;8.428;2024-01-15T06:53:05;36.60;;;15.75;;
46036;SDS011;31769;49.304;8.428;2024-01-15T06:56:05;38.00;;;17.27;;
46036;SDS011;31769;49.304;8.428;2024-01-15T06:59:06;39.33;;;16.77;;
46036;SDS011;31769;49.304;8.428;2024-01-15T07:02:06;44.90;;;20.48;;
46036;SDS011;31769;49.304;8.428;2024-01-15T07:05:07;40.80;;;18.20;;
46036;SDS011;31769;49.304;8.428;2024-01-15T07:08:08;45.30;;;19.83;;
46036;SDS011;31769;49.304;8.428;2024-01-15T07:11:09;43.20;;;17.88;;
46036;SDS011;31769;49.304;8.428;2024-01-15T07:14:10;38.50;;;17.02;;
46036;SDS011;31769;49.304;8.428;2024-01-15T07:17:10;42.13;;;16.92;;
46036;SDS011;31769;49.304;8.428;2024-01-15T07:20:11;36.70;;;16.75;;
46036;SDS011;31769;49.304;8.428;2024-01-15T07:23:12;44.15;;;17.33;;
46036;SDS011;31769;49.304;8.428;2024-01-15T07:26:12;43.13;;;20.17;;
46036;SDS011;31769;49.304;8.428;2024-01-15T07:29:13;39.17;;;19.35;;
46036;SDS011;31769;49.304;8.428;2024-01-15T07:32:14;42.25;;;20.45;;
46036;SDS011;31769;49.304;8.428;2024-01-15T07:35:14;42.30;;;18.17;;
46036;SDS011;31769;49.304;8.428;2024-01-15T07:38:15;40.15;;;18.90;;
46036;SDS011;31769;49.304;8.428;2024-01-15T07:41:16;34.70;;;16.33;;
46036;SDS011;31769;49.304;8.428;2024-01-15T07:44:16;32.17;;;15.52;;
46036;SDS011;31769;49.304;8.428;2024-01-15T07:47:17;36.40;;;16.05;;
46036;SDS011;31769;49.304;8.428;2024-01-15T07:50:18;36.67;;;16.40;;
46036;SDS011;31769;49.304;8.428;2024-01-15T07:53:19;26.58;;;12.52;;
46036;SDS011;31769;49.304;8.428;2024-01-15T07:56:19;37.10;;;17.33;;
46036;SDS011;31769;49.304;8.428;2024-01-15T07:59:21;33.47;;;15.73;;
46036;SDS011;31769;49.304;8.428;2024-01-15T08:02:22;40.08;;;18.50;;
46036;SDS011;31769;49.304;8.428;2024-01-15T08:05:22;34.75;;;17.42;;
46036;SDS011;31769;49.304;8.428;2024-01-15T08:08:23;36.72;;;16.55;;
46036;SDS011;31769;49.304;8.428;2024-01-15T08:11:24;36.50;;;17.35;;
46036;SDS011;31769;49.304;8.428;2024-01-15T08:14:24;34.17;;;16.60;;
46036;SDS011;31769;49.304;8.428;2024-01-15T08:17:25;34.33;;;15.60;;
46036;SDS011;31769;49.304;8.428;2024-01-15T08:20:28;34.67;;;16.55;;
46036;SDS011;31769;49.304;8.428;2024-01-15T08:23:29;34.53;;;17.58;;
46036;SDS011;31769;49.304;8.428;2024-01-15T08:26:31;36.50;;;16.48;;
46036;SDS011;31769;49.304;8.428;2024-01-15T08:29:32;34.40;;;17.40;;
46036;SDS011;31769;49.304;8.428;2024-01-15T08:32:34;33.60;;;16.88;;
46036;SDS011;31769;49.304;8.428;2024-01-15T08:35:40;29.00;;;15.07;;
46036;SDS011;31769;49.304;8.428;2024-01-15T08:38:41;35.50;;;18.27;;
46036;SDS011;31769;49.304;8.428;2024-01-15T08:41:42;35.55;;;17.63;;
46036;SDS011;31769;49.304;8.428;2024-01-15T08:44:42;35.88;;;18.17;;
46036;SDS011;31769;49.304;8.428;2024-01-15T08:47:43;36.45;;;17.65;;
46036;SDS011;31769;49.304;8.428;2024-01-15T08:50:44;32.85;;;16.15;;
46036;SDS011;31769;49.304;8.428;2024-01-15T08:53:48;32.58;;;16.33;;
46036;SDS011;31769;49.304;8.428;2024-01-15T08:56:48;29.48;;;14.50;;
46036;SDS011;31769;49.304;8.428;2024-01-15T08:59:49;32.17;;;15.63;;
46036;SDS011;31769;49.304;8.428;2024-01-15T09:02:50;39.00;;;18.75;;
46036;SDS011;31769;49.304;8.428;2024-01-15T09:05:50;33.72;;;18.42;;
46036;SDS011;31769;49.304;8.428;2024-01-15T09:08:51;34.53;;;17.92;;
46036;SDS011;31769;49.304;8.428;2024-01-15T09:11:52;23.75;;;12.00;;
46036;SDS011;31769;49.304;8.428;2024-01-15T09:14:52;33.70;;;16.85;;
46036;SDS011;31769;49.304;8.428;2024-01-15T09:17:53;32.88;;;15.68;;
46036;SDS011;31769;49.304;8.428;2024-01-15T09:20:54;35.33;;;18.63;;
46036;SDS011;31769;49.304;8.428;2024-01-15T09:23:55;33.67;;;17.90;;
46036;SDS011;31769;49.304;8.428;2024-01-15T09:26:55;36.97;;;18.73;;
46036;SDS011;31769;49.304;8.428;2024-01-15T09:29:56;37.17;;;18.70;;
46036;SDS011;31769;49.304;8.428;2024-01-15T09:32:57;36.90;;;20.27;;
46036;SDS011;31769;49.304;8.428;2024-01-15T09:36:01;38.38;;;19.80;;
46036;SDS011;31769;49.304;8.428;2024-01-15T09:39:03;36.83;;;18.90;;
46036;SDS011;31769;49.304;8.428;2024-01-15T09:42:07;37.40;;;20.88;;
46036;SDS011;31769;49.304;8.428;2024-01-15T09:45:10;38.65;;;20.30;;
46036;SDS011;31769;49.304;8.428;2024-01-15T09:48:12;36.67;;;18.55;;
46036;SDS011;31769;49.304;8.428;2024-01-15T09:51:13;36.78;;;19.50;;
46036;SDS011;31769;49.304;8.428;2024-01-15T09:54:15;35.25;;;19.10;;
46036;SDS011;31769;49.304;8.428;2024-01-15T09:57:17;36.58;;;18.65;;
46036;SDS011;31769;49.304;8.428;2024-01-15T10:00:18;35.42;;;16.30;;
46036;SDS011;31769;49.304;8.428;2024-01-15T10:03:19;36.67;;;19.85;;
46036;SDS011;31769;49.304;8.428;2024-01-15T10:06:21;39.38;;;20.98;;
46036;SDS011;31769;49.304;8.428;2024-01-15T10:09:22;36.50;;;19.77;;
46036;SDS011;31769;49.304;8.428;2024-01-15T10:12:23;40.13;;;19.10;;
46036;SDS011;31769;49.304;8.428;2024-01-15T10:15:25;39.70;;;20.35;;
46036;SDS011;31769;49.304;8.428;2024-01-15T10:18:26;43.55;;;21.15;;
46036;SDS011;31769;49.304;8.428;2024-01-15T10:21:27;45.00;;;23.52;;
46036;SDS011;31769;49.304;8.428;2024-01-15T10:24:28;43.53;;;20.33;;
46036;SDS011;31769;49.304;8.428;2024-01-15T10:27:28;46.55;;;21.83;;
46036;SDS011;31769;49.304;8.428;2024-01-15T10:30:29;38.20;;;17.95;;
46036;SDS011;31769;49.304;8.428;2024-01-15T10:33:31;42.95;;;19.45;;
46036;SDS011;31769;49.304;8.428;2024-01-15T10:36:32;41.67;;;17.35;;
46036;SDS011;31769;49.304;8.428;2024-01-15T10:39:33;51.97;;;22.45;;
46036;SDS011;31769;49.304;8.428;2024-01-15T10:42:33;54.50;;;25.10;;
46036;SDS011;31769;49.304;8.428;2024-01-15T10:45:34;65.47;;;29.52;;
46036;SDS011;31769;49.304;8.428;2024-01-15T10:48:34;49.50;;;22.02;;
46036;SDS011;31769;49.304;8.428;2024-01-15T10:51:36;62.97;;;30.55;;
46036;SDS011;31769;49.304;8.428;2024-01-15T10:54:36;42.53;;;21.27;;
46036;SDS011;31769;49.304;8.428;2024-01-15T10:57:38;43.35;;;21.33;;
46036;SDS011;31769;49.304;8.428;2024-01-15T11:00:39;51.63;;;23.65;;
46036;SDS011;31769;49.304;8.428;2024-01-15T11:03:40;44.42;;;20.90;;
46036;SDS011;31769;49.304;8.428;2024-01-15T11:06:43;40.05;;;20.25;;
46036;SDS011;31769;49.304;8.428;2024-01-15T11:09:45;34.40;;;17.88;;
46036;SDS011;31769;49.304;8.428;2024-01-15T11:12:47;33.63;;;16.55;;
46036;SDS011;31769;49.304;8.428;2024-01-15T11:15:58;38.85;;;19.67;;
46036;SDS011;31769;49.304;8.428;2024-01-15T11:22:00;38.00;;;19.52;;
46036;SDS011;31769;49.304;8.428;2024-01-15T11:25:02;37.53;;;17.50;;
46036;SDS011;31769;49.304;8.428;2024-01-15T11:28:13;36.97;;;19.08;;
46036;SDS011;31769;49.304;8.428;2024-01-15T11:34:50;38.33;;;20.35;;
46036;SDS011;31769;49.304;8.428;2024-01-15T11:37:58;42.13;;;21.23;;
46036;SDS011;31769;49.304;8.428;2024-01-15T11:40:59;45.55;;;21.30;;
46036;SDS011;31769;49.304;8.428;2024-01-15T11:44:01;39.83;;;20.60;;
46036;SDS011;31769;49.304;8.428;2024-01-15T11:50:04;42.85;;;20.65;;
46036;SDS011;31769;49.304;8.428;2024-01-15T11:53:08;42.30;;;19.95;;
46036;SDS011;31769;49.304;8.428;2024-01-15T11:56:18;39.90;;;20.88;;
46036;SDS011;31769;49.304;8.428;2024-01-15T11:59:22;36.83;;;19.60;;
46036;SDS011;31769;49.304;8.428;2024-01-15T12:02:23;40.03;;;20.40;;
46036;SDS011;31769;49.304;8.428;2024-01-15T12:05:24;36.55;;;19.02;;
46036;SDS011;31769;49.304;8.428;2024-01-15T12:08:25;38.03;;;20.60;;
46036;SDS011;31769;49.304;8.428;2024-01-15T12:11:27;36.38;;;19.58;;
46036;SDS011;31769;49.304;8.428;2024-01-15T12:14:29;37.85;;;20.60;;
46036;SDS011;31769;49.304;8.428;2024-01-15T12:17:30;34.10;;;19.05;;
46036;SDS011;31769;49.304;8.428;2024-01-15T12:20:31;33.70;;;18.45;;
46036;SDS011;31769;49.304;8.428;2024-01-15T12:23:33;31.65;;;17.90;;
46036;SDS011;31769;49.304;8.428;2024-01-15T12:26:34;28.27;;;15.60;;
46036;SDS011;31769;49.304;8.428;2024-01-15T12:29:34;32.83;;;17.58;;
46036;SDS011;31769;49.304;8.428;2024-01-15T12:32:35;43.00;;;21.52;;
46036;SDS011;31769;49.304;8.428;2024-01-15T12:35:37;60.17;;;35.20;;
46036;SDS011;31769;49.304;8.428;2024-01-15T12:38:38;39.90;;;20.33;;
46036;SDS011;31769;49.304;8.428;2024-01-15T12:41:38;44.17;;;21.90;;
46036;SDS011;31769;49.304;8.428;2024-01-15T12:44:39;38.28;;;22.50;;
46036;SDS011;31769;49.304;8.428;2024-01-15T12:47:40;32.78;;;17.95;;
46036;SDS011;31769;49.304;8.428;2024-01-15T12:50:42;29.55;;;16.95;;
46036;SDS011;31769;49.304;8.428;2024-01-15T12:53:44;25.90;;;15.30;;
46036;SDS011;31769;49.304;8.428;2024-01-15T12:56:44;26.73;;;15.50;;
46036;SDS011;31769;49.304;8.428;2024-01-15T12:59:45;30.90;;;18.25;;
46036;SDS011;31769;49.304;8.428;2024-01-15T13:02:46;29.67;;;17.83;;
46036;SDS011;31769;49.304;8.428;2024-01-15T13:05:47;28.10;;;19.23;;
46036;SDS011;31769;49.304;8.428;2024-01-15T13:08:49;30.88;;;19.27;;
46036;SDS011;31769;49.304;8.428;2024-01-15T13:11:49;32.72;;;19.60;;
46036;SDS011;31769;49.304;8.428;2024-01-15T13:14:50;21.00;;;13.35;;
46036;SDS011;31769;49.304;8.428;2024-01-15T13:17:51;20.80;;;12.57;;
46036;SDS011;31769;49.304;8.428;2024-01-15T13:20:51;27.10;;;16.63;;
46036;SDS011;31769;49.304;8.428;2024-01-15T13:23:52;17.25;;;10.57;;
46036;SDS011;31769;49.304;8.428;2024-01-15T13:26:53;18.67;;;12.63;;
46036;SDS011;31769;49.304;8.428;2024-01-15T13:29:53;17.33;;;11.75;;
46036;SDS011;31769;49.304;8.428;2024-01-15T13:32:54;14.45;;;10.68;;
46036;SDS011;31769;49.304;8.428;2024-01-15T13:35:56;14.20;;;10.48;;
46036;SDS011;31769;49.304;8.428;2024-01-15T13:38:57;13.45;;;8.68;;
46036;SDS011;31769;49.304;8.428;2024-01-15T13:41:59;13.15;;;9.38;;
46036;SDS011;31769;49.304;8.428;2024-01-15T13:45:00;14.05;;;10.18;;
46036;SDS011;31769;49.304;8.428;2024-01-15T13:48:00;14.30;;;10.05;;
46036;SDS011;31769;49.304;8.428;2024-01-15T13:51:05;12.73;;;9.70;;
46036;SDS011;31769;49.304;8.428;2024-01-15T13:54:06;12.30;;;9.05;;
46036;SDS011;31769;49.304;8.428;2024-01-15T13:57:07;10.70;;;8.68;;
46036;SDS011;31769;49.304;8.428;2024-01-15T14:00:08;12.98;;;8.32;;
46036;SDS011;31769;49.304;8.428;2024-01-15T14:03:11;10.63;;;8.05;;
46036;SDS011;31769;49.304;8.428;2024-01-15T14:06:12;9.95;;;7.90;;
46036;SDS011;31769;49.304;8.428;2024-01-15T14:09:12;12.35;;;9.10;;
46036;SDS011;31769;49.304;8.428;2024-01-15T14:12:14;10.25;;;8.38;;
46036;SDS011;31769;49.304;8.428;2024-01-15T14:15:15;13.10;;;9.40;;
46036;SDS011;31769;49.304;8.428;2024-01-15T14:18:16;17.13;;;11.32;;
46036;SDS011;31769;49.304;8.428;2024-01-15T14:21:17;16.85;;;11.30;;
46036;SDS011;31769;49.304;8.428;2024-01-15T14:24:18;19.08;;;11.63;;
46036;SDS011;31769;49.304;8.428;2024-01-15T14:27:19;18.55;;;11.57;;
46036;SDS011;31769;49.304;8.428;2024-01-15T14:30:19;16.45;;;11.85;;
46036;SDS011;31769;49.304;8.428;2024-01-15T14:33:20;16.98;;;11.85;;
46036;SDS011;31769;49.304;8.428;2024-01-15T14:36:21;14.68;;;10.27;;
46036;SDS011;31769;49.304;8.428;2024-01-15T14:39:22;13.30;;;9.65;;
46036;SDS011;31769;49.304;8.428;2024-01-15T14:42:23;13.10;;;9.07;;
46036;SDS011;31769;49.304;8.428;2024-01-15T14:45:24;11.70;;;8.45;;
46036;SDS011;31769;49.304;8.428;2024-01-15T14:48:27;12.73;;;8.52;;
46036;SDS011;31769;49.304;8.428;2024-01-15T14:51:28;14.43;;;9.13;;
46036;SDS011;31769;49.304;8.428;2024-01-15T14:54:28;13.20;;;9.18;;
46036;SDS011;31769;49.304;8.428;2024-01-15T14:57:29;14.82;;;9.68;;
46036;SDS011;31769;49.304;8.428;2024-01-15T15:00:30;13.57;;;9.35;;
46036;SDS011;31769;49.304;8.428;2024-01-15T15:03:30;17.10;;;8.77;;
46036;SDS011;31769;49.304;8.428;2024-01-15T15:06:31;14.50;;;9.43;;
46036;SDS011;31769;49.304;8.428;2024-01-15T15:09:32;12.80;;;8.18;;
46036;SDS011;31769;49.304;8.428;2024-01-15T15:12:33;14.00;;;7.72;;
46036;SDS011;31769;49.304;8.428;2024-01-15T15:15:34;12.45;;;8.35;;
46036;SDS011;31769;49.304;8.428;2024-01-15T15:18:35;11.18;;;7.75;;
46036;SDS011;31769;49.304;8.428;2024-01-15T15:21:35;12.70;;;7.65;;
46036;SDS011;31769;49.304;8.428;2024-01-15T15:24:36;11.82;;;7.28;;
46036;SDS011;31769;49.304;8.428;2024-01-15T15:27:38;13.80;;;7.80;;
46036;SDS011;31769;49.304;8.428;2024-01-15T15:30:40;10.95;;;7.00;;
46036;SDS011;31769;49.304;8.428;2024-01-15T15:33:40;11.05;;;7.65;;
46036;SDS011;31769;49.304;8.428;2024-01-15T15:36:41;12.95;;;8.10;;
46036;SDS011;31769;49.304;8.428;2024-01-15T15:39:42;13.20;;;8.07;;
46036;SDS011;31769;49.304;8.428;2024-01-15T15:42:43;12.80;;;7.22;;
46036;SDS011;31769;49.304;8.428;2024-01-15T15:45:44;13.38;;;7.53;;
46036;SDS011;31769;49.304;8.428;2024-01-15T15:48:44;9.73;;;6.60;;
46036;SDS011;31769;49.304;8.428;2024-01-15T15:51:45;11.00;;;6.10;;
46036;SDS011;31769;49.304;8.428;2024-01-15T15:54:46;12.20;;;6.13;;
46036;SDS011;31769;49.304;8.428;2024-01-15T15:57:46;12.60;;;6.47;;
46036;SDS011;31769;49.304;8.428;2024-01-15T16:00:48;11.77;;;6.45;;
46036;SDS011;31769;49.304;8.428;2024-01-15T16:03:48;9.20;;;6.20;;
46036;SDS011;31769;49.304;8.428;2024-01-15T16:06:49;13.27;;;7.93;;
46036;SDS011;31769;49.304;8.428;2024-01-15T16:09:50;9.52;;;6.63;;
46036;SDS011;31769;49.304;8.428;2024-01-15T16:12:51;12.93;;;7.38;;
46036;SDS011;31769;49.304;8.428;2024-01-15T16:15:51;13.50;;;8.02;;
46036;SDS011;31769;49.304;8.428;2024-01-15T16:18:52;17.67;;;9.73;;
46036;SDS011;31769;49.304;8.428;2024-01-15T16:21:53;18.85;;;10.30;;
46036;SDS011;31769;49.304;8.428;2024-01-15T16:24:55;16.17;;;9.30;;
46036;SDS011;31769;49.304;8.428;2024-01-15T16:27:55;19.55;;;9.90;;
46036;SDS011;31769;49.304;8.428;2024-01-15T16:30:56;19.30;;;10.80;;
46036;SDS011;31769;49.304;8.428;2024-01-15T16:33:57;24.15;;;13.65;;
46036;SDS011;31769;49.304;8.428;2024-01-15T16:36:59;20.17;;;9.40;;
46036;SDS011;31769;49.304;8.428;2024-01-15T16:40:00;20.08;;;10.45;;
46036;SDS011;31769;49.304;8.428;2024-01-15T16:43:01;17.52;;;9.55;;
46036;SDS011;31769;49.304;8.428;2024-01-15T16:46:01;22.50;;;11.50;;
46036;SDS011;31769;49.304;8.428;2024-01-15T16:49:02;15.02;;;8.52;;
46036;SDS011;31769;49.304;8.428;2024-01-15T16:52:08;13.77;;;7.38;;
46036;SDS011;31769;49.304;8.428;2024-01-15T16:55:08;17.65;;;9.18;;
46036;SDS011;31769;49.304;8.428;2024-01-15T16:58:09;12.73;;;8.27;;
46036;SDS011;31769;49.304;8.428;2024-01-15T17:01:10;13.38;;;8.48;;
46036;SDS011;31769;49.304;8.428;2024-01-15T17:04:10;14.13;;;8.68;;
46036;SDS011;31769;49.304;8.428;2024-01-15T17:07:11;13.00;;;7.63;;
46036;SDS011;31769;49.304;8.428;2024-01-15T17:10:13;11.63;;;7.47;;
46036;SDS011;31769;49.304;8.428;2024-01-15T17:13:13;14.35;;;7.88;;
46036;SDS011;31769;49.304;8.428;2024-01-15T17:16:14;13.13;;;7.32;;
46036;SDS011;31769;49.304;8.428;2024-01-15T17:19:15;13.63;;;7.93;;
46036;SDS011;31769;49.304;8.428;2024-01-15T17:22:16;15.38;;;8.07;;
46036;SDS011;31769;49.304;8.428;2024-01-15T17:25:17;10.95;;;6.18;;
46036;SDS011;31769;49.304;8.428;2024-01-15T17:28:18;19.55;;;8.52;;
46036;SDS011;31769;49.304;8.428;2024-01-15T17:31:18;17.92;;;9.55;;
46036;SDS011;31769;49.304;8.428;2024-01-15T17:34:20;22.58;;;11.48;;
46036;SDS011;31769;49.304;8.428;2024-01-15T17:37:20;18.50;;;10.48;;
46036;SDS011;31769;49.304;8.428;2024-01-15T17:40:21;28.08;;;13.32;;
46036;SDS011;31769;49.304;8.428;2024-01-15T17:43:22;9.95;;;7.13;;
46036;SDS011;31769;49.304;8.428;2024-01-15T17:46:23;15.50;;;8.63;;
46036;SDS011;31769;49.304;8.428;2024-01-15T17:49:23;15.23;;;8.77;;
46036;SDS011;31769;49.304;8.428;2024-01-15T17:52:24;12.82;;;8.30;;